Portada
METAR-TAF:

METAR-TAF

Aeropuertos :

Aeropuerto Civil de Amán

Amán, Jordania

latitud: 31-59N, longitud: 035-59E, altitud: 767 m

Observación

El informe se hizo hace 1 hora y 7 minutos, a las 11:00 UTC
Viento 4 kt del este-sureste
Temperatura 19°C
Humedad 22%
Presión 1016 hPa
Visibilidad 10 km o más
Escasas nubes a una altura de 4500 ft

METAR: OJAM 271100Z 11004KT 9999 FEW045 19/M03 Q1016 NOSIG

Hora: 14:07 (12:07 UTC)

Pronóstico

El informe se hizo hace 1 hora y 7 minutos, a las 11:00 UTC
Pronóstico válido del 27 a las 12 UTC al 28 a las 18 UTC
Viento 8 kt del este
Visibilidad: 5000 m
calima
Evolucionando progresivamente
del 28 a las 08 UTC al 28 a las 10 UTC
Viento 10 kt del oeste-noroeste
Escasas nubes a una altura de 3000 ft

TAF: OJAM 271100Z 2712/2818 10008KT 5000 HZ NSC BECMG 2808/2810 30010KT FEW030

Observaciones y pronósticos meteorológicos de más de 4000 aeropuertos (mensajes METAR y TAF).

Los puntos amarillos y rojos representan las estaciones disponibles.

Ponga el ratón en el punto deseado para ver el nombre de la estación.

Haga clic para ver las observaciones y los pronósticos meteorológicos.

Para cambiar el mapa : haga clic en los botones verdes con una cruz de color negro para hacer un zoom, en el botón verde con un guión para alejar o en las flechas verdes para mapas adyacentes.


METAR-TAF: